sensor_id;sensor_type;location;lat;lon;timestamp;P1;durP1;ratioP1;P2;durP2;ratioP2
73747;SDS011;62056;52.130;5.428;2023-03-01T00:01:03;7.95;;;4.78;;
73747;SDS011;62056;52.130;5.428;2023-03-01T00:03:37;13.18;;;5.75;;
73747;SDS011;62056;52.130;5.428;2023-03-01T00:06:04;11.45;;;5.72;;
73747;SDS011;62056;52.130;5.428;2023-03-01T00:08:32;7.97;;;5.73;;
73747;SDS011;62056;52.130;5.428;2023-03-01T00:11:17;8.25;;;6.00;;
73747;SDS011;62056;52.130;5.428;2023-03-01T00:13:52;6.75;;;4.78;;
73747;SDS011;62056;52.130;5.428;2023-03-01T00:16:23;8.18;;;4.97;;
73747;SDS011;62056;52.130;5.428;2023-03-01T00:18:53;7.53;;;5.70;;
73747;SDS011;62056;52.130;5.428;2023-03-01T00:21:20;12.97;;;5.93;;
73747;SDS011;62056;52.130;5.428;2023-03-01T00:23:48;8.23;;;5.90;;
73747;SDS011;62056;52.130;5.428;2023-03-01T00:26:16;11.13;;;5.38;;
73747;SDS011;62056;52.130;5.428;2023-03-01T00:28:44;5.30;;;4.45;;
73747;SDS011;62056;52.130;5.428;2023-03-01T00:31:13;10.95;;;6.60;;
73747;SDS011;62056;52.130;5.428;2023-03-01T00:33:41;8.53;;;5.33;;
73747;SDS011;62056;52.130;5.428;2023-03-01T00:36:09;6.40;;;4.78;;
73747;SDS011;62056;52.130;5.428;2023-03-01T00:38:37;9.95;;;6.75;;
73747;SDS011;62056;52.130;5.428;2023-03-01T00:41:09;7.68;;;5.75;;
73747;SDS011;62056;52.130;5.428;2023-03-01T00:43:37;6.20;;;5.07;;
73747;SDS011;62056;52.130;5.428;2023-03-01T00:46:05;11.67;;;5.87;;
73747;SDS011;62056;52.130;5.428;2023-03-01T00:48:34;6.50;;;4.57;;
73747;SDS011;62056;52.130;5.428;2023-03-01T00:53:42;7.50;;;6.05;;
73747;SDS011;62056;52.130;5.428;2023-03-01T00:56:10;8.65;;;5.97;;
73747;SDS011;62056;52.130;5.428;2023-03-01T00:58:38;8.87;;;5.87;;
73747;SDS011;62056;52.130;5.428;2023-03-01T01:01:09;8.02;;;4.90;;
73747;SDS011;62056;52.130;5.428;2023-03-01T01:03:45;10.00;;;5.95;;
73747;SDS011;62056;52.130;5.428;2023-03-01T01:06:17;12.90;;;6.88;;
73747;SDS011;62056;52.130;5.428;2023-03-01T01:08:45;9.20;;;6.47;;
73747;SDS011;62056;52.130;5.428;2023-03-01T01:11:12;7.37;;;6.03;;
73747;SDS011;62056;52.130;5.428;2023-03-01T01:13:39;11.30;;;6.75;;
73747;SDS011;62056;52.130;5.428;2023-03-01T01:16:07;14.60;;;6.95;;
73747;SDS011;62056;52.130;5.428;2023-03-01T01:18:34;8.43;;;7.20;;
73747;SDS011;62056;52.130;5.428;2023-03-01T01:21:03;9.13;;;6.28;;
73747;SDS011;62056;52.130;5.428;2023-03-01T01:23:33;9.20;;;5.83;;
73747;SDS011;62056;52.130;5.428;2023-03-01T01:26:03;9.30;;;5.88;;
73747;SDS011;62056;52.130;5.428;2023-03-01T01:28:32;8.95;;;6.28;;
73747;SDS011;62056;52.130;5.428;2023-03-01T01:30:58;8.50;;;6.28;;
73747;SDS011;62056;52.130;5.428;2023-03-01T01:33:25;8.45;;;6.85;;
73747;SDS011;62056;52.130;5.428;2023-03-01T01:35:53;9.23;;;6.57;;
73747;SDS011;62056;52.130;5.428;2023-03-01T01:38:19;9.20;;;6.68;;
73747;SDS011;62056;52.130;5.428;2023-03-01T01:40:48;8.15;;;6.07;;
73747;SDS011;62056;52.130;5.428;2023-03-01T01:43:21;10.30;;;7.53;;
73747;SDS011;62056;52.130;5.428;2023-03-01T01:45:50;13.82;;;6.18;;
73747;SDS011;62056;52.130;5.428;2023-03-01T01:48:18;10.43;;;6.87;;
73747;SDS011;62056;52.130;5.428;2023-03-01T01:50:55;12.52;;;9.00;;
73747;SDS011;62056;52.130;5.428;2023-03-01T01:53:25;11.27;;;7.40;;
73747;SDS011;62056;52.130;5.428;2023-03-01T01:55:53;12.32;;;7.22;;
73747;SDS011;62056;52.130;5.428;2023-03-01T01:58:23;11.73;;;7.03;;
73747;SDS011;62056;52.130;5.428;2023-03-01T02:00:52;12.63;;;7.00;;
73747;SDS011;62056;52.130;5.428;2023-03-01T02:03:24;10.75;;;7.30;;
73747;SDS011;62056;52.130;5.428;2023-03-01T02:08:47;9.98;;;7.05;;
73747;SDS011;62056;52.130;5.428;2023-03-01T02:11:18;7.72;;;6.50;;
73747;SDS011;62056;52.130;5.428;2023-03-01T02:13:46;11.07;;;6.67;;
73747;SDS011;62056;52.130;5.428;2023-03-01T02:16:13;9.98;;;6.60;;
73747;SDS011;62056;52.130;5.428;2023-03-01T02:18:41;10.23;;;6.88;;
73747;SDS011;62056;52.130;5.428;2023-03-01T02:24:04;14.40;;;8.63;;
73747;SDS011;62056;52.130;5.428;2023-03-01T02:26:45;9.40;;;6.30;;
73747;SDS011;62056;52.130;5.428;2023-03-01T02:29:14;11.50;;;7.43;;
73747;SDS011;62056;52.130;5.428;2023-03-01T02:31:41;11.38;;;7.32;;
73747;SDS011;62056;52.130;5.428;2023-03-01T02:34:12;11.25;;;8.20;;
73747;SDS011;62056;52.130;5.428;2023-03-01T02:36:45;15.90;;;7.70;;
73747;SDS011;62056;52.130;5.428;2023-03-01T02:39:15;15.90;;;8.60;;
73747;SDS011;62056;52.130;5.428;2023-03-01T02:41:47;18.45;;;7.65;;
73747;SDS011;62056;52.130;5.428;2023-03-01T02:44:16;11.27;;;7.88;;
73747;SDS011;62056;52.130;5.428;2023-03-01T02:46:46;8.27;;;6.63;;
73747;SDS011;62056;52.130;5.428;2023-03-01T02:49:18;8.23;;;6.25;;
73747;SDS011;62056;52.130;5.428;2023-03-01T02:51:56;11.13;;;5.80;;
73747;SDS011;62056;52.130;5.428;2023-03-01T02:57:18;13.63;;;7.50;;
73747;SDS011;62056;52.130;5.428;2023-03-01T02:59:46;9.20;;;7.55;;
73747;SDS011;62056;52.130;5.428;2023-03-01T03:02:20;9.38;;;6.50;;
73747;SDS011;62056;52.130;5.428;2023-03-01T03:05:03;8.70;;;6.40;;
73747;SDS011;62056;52.130;5.428;2023-03-01T03:07:37;13.38;;;7.10;;
73747;SDS011;62056;52.130;5.428;2023-03-01T03:10:07;11.27;;;7.25;;
73747;SDS011;62056;52.130;5.428;2023-03-01T03:12:39;14.30;;;7.00;;
73747;SDS011;62056;52.130;5.428;2023-03-01T03:15:06;10.60;;;7.18;;
73747;SDS011;62056;52.130;5.428;2023-03-01T03:17:36;10.40;;;7.53;;
73747;SDS011;62056;52.130;5.428;2023-03-01T03:20:03;10.45;;;7.32;;
73747;SDS011;62056;52.130;5.428;2023-03-01T03:22:31;8.98;;;6.60;;
73747;SDS011;62056;52.130;5.428;2023-03-01T03:25:00;9.82;;;7.90;;
73747;SDS011;62056;52.130;5.428;2023-03-01T03:27:27;12.88;;;8.38;;
73747;SDS011;62056;52.130;5.428;2023-03-01T03:29:54;11.90;;;8.30;;
73747;SDS011;62056;52.130;5.428;2023-03-01T03:32:21;13.55;;;8.18;;
73747;SDS011;62056;52.130;5.428;2023-03-01T03:34:47;11.50;;;7.10;;
73747;SDS011;62056;52.130;5.428;2023-03-01T03:37:15;12.50;;;6.93;;
73747;SDS011;62056;52.130;5.428;2023-03-01T03:40:00;9.98;;;7.20;;
73747;SDS011;62056;52.130;5.428;2023-03-01T03:42:27;10.20;;;6.80;;
73747;SDS011;62056;52.130;5.428;2023-03-01T03:44:53;12.90;;;8.10;;
73747;SDS011;62056;52.130;5.428;2023-03-01T03:47:20;7.88;;;6.22;;
73747;SDS011;62056;52.130;5.428;2023-03-01T03:49:46;8.38;;;6.32;;
73747;SDS011;62056;52.130;5.428;2023-03-01T03:52:13;11.50;;;6.30;;
73747;SDS011;62056;52.130;5.428;2023-03-01T03:54:40;8.97;;;6.80;;
73747;SDS011;62056;52.130;5.428;2023-03-01T03:57:07;9.38;;;6.82;;
73747;SDS011;62056;52.130;5.428;2023-03-01T03:59:33;8.32;;;5.43;;
73747;SDS011;62056;52.130;5.428;2023-03-01T04:02:00;10.57;;;7.20;;
73747;SDS011;62056;52.130;5.428;2023-03-01T04:04:27;11.00;;;8.40;;
73747;SDS011;62056;52.130;5.428;2023-03-01T04:06:53;11.93;;;8.00;;
73747;SDS011;62056;52.130;5.428;2023-03-01T04:09:20;12.25;;;7.13;;
73747;SDS011;62056;52.130;5.428;2023-03-01T04:11:46;12.45;;;8.27;;
73747;SDS011;62056;52.130;5.428;2023-03-01T04:14:13;11.27;;;8.40;;
73747;SDS011;62056;52.130;5.428;2023-03-01T04:16:39;16.88;;;7.28;;
73747;SDS011;62056;52.130;5.428;2023-03-01T04:19:06;9.63;;;6.17;;
73747;SDS011;62056;52.130;5.428;2023-03-01T04:21:33;7.95;;;5.57;;
73747;SDS011;62056;52.130;5.428;2023-03-01T04:23:59;8.95;;;6.57;;
73747;SDS011;62056;52.130;5.428;2023-03-01T04:26:25;9.25;;;6.75;;
73747;SDS011;62056;52.130;5.428;2023-03-01T04:28:53;11.77;;;8.07;;
73747;SDS011;62056;52.130;5.428;2023-03-01T04:31:20;12.53;;;7.87;;
73747;SDS011;62056;52.130;5.428;2023-03-01T04:33:49;9.27;;;7.03;;
73747;SDS011;62056;52.130;5.428;2023-03-01T04:36:18;10.25;;;7.20;;
73747;SDS011;62056;52.130;5.428;2023-03-01T04:38:45;12.70;;;7.07;;
73747;SDS011;62056;52.130;5.428;2023-03-01T04:41:14;11.63;;;6.60;;
73747;SDS011;62056;52.130;5.428;2023-03-01T04:43:43;8.90;;;6.83;;
73747;SDS011;62056;52.130;5.428;2023-03-01T04:46:12;8.93;;;7.00;;
73747;SDS011;62056;52.130;5.428;2023-03-01T04:48:41;13.93;;;7.25;;
73747;SDS011;62056;52.130;5.428;2023-03-01T04:51:09;10.23;;;7.00;;
73747;SDS011;62056;52.130;5.428;2023-03-01T04:53:40;9.30;;;6.93;;
73747;SDS011;62056;52.130;5.428;2023-03-01T04:56:07;12.93;;;7.87;;
73747;SDS011;62056;52.130;5.428;2023-03-01T04:58:34;14.93;;;7.80;;
73747;SDS011;62056;52.130;5.428;2023-03-01T05:01:00;14.25;;;9.13;;
73747;SDS011;62056;52.130;5.428;2023-03-01T05:03:27;17.17;;;8.45;;
73747;SDS011;62056;52.130;5.428;2023-03-01T05:05:54;13.57;;;7.18;;
73747;SDS011;62056;52.130;5.428;2023-03-01T05:08:25;12.53;;;6.87;;
73747;SDS011;62056;52.130;5.428;2023-03-01T05:10:53;11.05;;;7.55;;
73747;SDS011;62056;52.130;5.428;2023-03-01T05:13:20;12.02;;;6.80;;
73747;SDS011;62056;52.130;5.428;2023-03-01T05:15:48;10.32;;;7.15;;
73747;SDS011;62056;52.130;5.428;2023-03-01T05:18:21;15.35;;;6.55;;
73747;SDS011;62056;52.130;5.428;2023-03-01T05:20:55;11.57;;;6.80;;
73747;SDS011;62056;52.130;5.428;2023-03-01T05:23:27;8.13;;;6.45;;
73747;SDS011;62056;52.130;5.428;2023-03-01T05:25:54;8.43;;;5.65;;
73747;SDS011;62056;52.130;5.428;2023-03-01T05:28:23;8.93;;;5.70;;
73747;SDS011;62056;52.130;5.428;2023-03-01T05:30:50;7.25;;;5.35;;
73747;SDS011;62056;52.130;5.428;2023-03-01T05:33:17;12.60;;;7.57;;
73747;SDS011;62056;52.130;5.428;2023-03-01T05:35:45;10.18;;;7.32;;
73747;SDS011;62056;52.130;5.428;2023-03-01T05:38:12;8.77;;;5.15;;
73747;SDS011;62056;52.130;5.428;2023-03-01T05:40:43;18.13;;;8.43;;
73747;SDS011;62056;52.130;5.428;2023-03-01T05:43:11;14.98;;;6.68;;
73747;SDS011;62056;52.130;5.428;2023-03-01T05:45:39;13.53;;;8.07;;
73747;SDS011;62056;52.130;5.428;2023-03-01T05:48:07;14.27;;;7.90;;
73747;SDS011;62056;52.130;5.428;2023-03-01T05:50:36;13.00;;;6.97;;
73747;SDS011;62056;52.130;5.428;2023-03-01T05:53:12;13.02;;;7.60;;
73747;SDS011;62056;52.130;5.428;2023-03-01T05:55:43;10.02;;;6.13;;
73747;SDS011;62056;52.130;5.428;2023-03-01T05:58:11;12.23;;;6.53;;
73747;SDS011;62056;52.130;5.428;2023-03-01T06:00:40;9.93;;;6.25;;
73747;SDS011;62056;52.130;5.428;2023-03-01T06:03:08;6.53;;;5.22;;
73747;SDS011;62056;52.130;5.428;2023-03-01T06:05:36;10.30;;;6.85;;
73747;SDS011;62056;52.130;5.428;2023-03-01T06:08:04;14.48;;;7.90;;
73747;SDS011;62056;52.130;5.428;2023-03-01T06:10:31;9.57;;;6.90;;
73747;SDS011;62056;52.130;5.428;2023-03-01T06:12:58;12.82;;;7.72;;
73747;SDS011;62056;52.130;5.428;2023-03-01T06:15:25;10.43;;;7.47;;
73747;SDS011;62056;52.130;5.428;2023-03-01T06:17:53;15.23;;;8.57;;
73747;SDS011;62056;52.130;5.428;2023-03-01T06:20:25;17.63;;;8.30;;
73747;SDS011;62056;52.130;5.428;2023-03-01T06:22:53;11.50;;;7.03;;
73747;SDS011;62056;52.130;5.428;2023-03-01T06:25:21;11.43;;;7.57;;
73747;SDS011;62056;52.130;5.428;2023-03-01T06:27:49;9.30;;;7.90;;
73747;SDS011;62056;52.130;5.428;2023-03-01T06:30:18;8.80;;;7.32;;
73747;SDS011;62056;52.130;5.428;2023-03-01T06:32:49;11.52;;;7.75;;
73747;SDS011;62056;52.130;5.428;2023-03-01T06:35:16;10.20;;;6.70;;
73747;SDS011;62056;52.130;5.428;2023-03-01T06:37:44;9.13;;;6.50;;
73747;SDS011;62056;52.130;5.428;2023-03-01T06:40:11;13.55;;;7.57;;
73747;SDS011;62056;52.130;5.428;2023-03-01T06:42:41;11.73;;;7.15;;
73747;SDS011;62056;52.130;5.428;2023-03-01T06:45:09;8.07;;;6.63;;
73747;SDS011;62056;52.130;5.428;2023-03-01T06:47:36;10.67;;;7.60;;
73747;SDS011;62056;52.130;5.428;2023-03-01T06:50:03;13.98;;;8.25;;
73747;SDS011;62056;52.130;5.428;2023-03-01T06:52:30;8.20;;;6.70;;
73747;SDS011;62056;52.130;5.428;2023-03-01T06:54:58;13.50;;;8.85;;
73747;SDS011;62056;52.130;5.428;2023-03-01T06:57:25;13.70;;;8.15;;
73747;SDS011;62056;52.130;5.428;2023-03-01T06:59:52;10.20;;;7.13;;
73747;SDS011;62056;52.130;5.428;2023-03-01T07:02:18;13.55;;;8.38;;
73747;SDS011;62056;52.130;5.428;2023-03-01T07:04:45;9.25;;;6.63;;
73747;SDS011;62056;52.130;5.428;2023-03-01T07:07:12;13.65;;;8.15;;
73747;SDS011;62056;52.130;5.428;2023-03-01T07:09:38;14.73;;;7.68;;
73747;SDS011;62056;52.130;5.428;2023-03-01T07:12:05;9.00;;;6.90;;
73747;SDS011;62056;52.130;5.428;2023-03-01T07:14:32;9.93;;;6.05;;
73747;SDS011;62056;52.130;5.428;2023-03-01T07:16:59;16.95;;;8.75;;
73747;SDS011;62056;52.130;5.428;2023-03-01T07:19:25;18.40;;;10.23;;
73747;SDS011;62056;52.130;5.428;2023-03-01T07:21:52;14.27;;;9.25;;
73747;SDS011;62056;52.130;5.428;2023-03-01T07:24:19;18.07;;;9.27;;
73747;SDS011;62056;52.130;5.428;2023-03-01T07:26:49;13.52;;;7.90;;
73747;SDS011;62056;52.130;5.428;2023-03-01T07:29:16;13.40;;;9.60;;
73747;SDS011;62056;52.130;5.428;2023-03-01T07:31:43;10.02;;;6.95;;
73747;SDS011;62056;52.130;5.428;2023-03-01T07:34:10;14.70;;;7.53;;
73747;SDS011;62056;52.130;5.428;2023-03-01T07:36:37;9.97;;;6.83;;
73747;SDS011;62056;52.130;5.428;2023-03-01T07:39:05;9.50;;;6.85;;
73747;SDS011;62056;52.130;5.428;2023-03-01T07:41:32;11.95;;;6.65;;
73747;SDS011;62056;52.130;5.428;2023-03-01T07:43:59;14.40;;;8.48;;
73747;SDS011;62056;52.130;5.428;2023-03-01T07:46:26;11.07;;;7.10;;
73747;SDS011;62056;52.130;5.428;2023-03-01T07:48:53;15.73;;;8.23;;
73747;SDS011;62056;52.130;5.428;2023-03-01T07:51:20;12.07;;;7.72;;
73747;SDS011;62056;52.130;5.428;2023-03-01T07:53:47;14.05;;;9.25;;
73747;SDS011;62056;52.130;5.428;2023-03-01T07:56:14;13.95;;;8.70;;
73747;SDS011;62056;52.130;5.428;2023-03-01T07:58:44;13.82;;;8.68;;
73747;SDS011;62056;52.130;5.428;2023-03-01T08:01:12;7.53;;;6.10;;
73747;SDS011;62056;52.130;5.428;2023-03-01T08:03:42;15.80;;;8.65;;
73747;SDS011;62056;52.130;5.428;2023-03-01T08:06:11;12.45;;;7.65;;
73747;SDS011;62056;52.130;5.428;2023-03-01T08:08:38;12.80;;;8.07;;
73747;SDS011;62056;52.130;5.428;2023-03-01T08:11:05;14.20;;;8.18;;
73747;SDS011;62056;52.130;5.428;2023-03-01T08:13:33;9.47;;;5.43;;
73747;SDS011;62056;52.130;5.428;2023-03-01T08:16:01;11.57;;;6.85;;
73747;SDS011;62056;52.130;5.428;2023-03-01T08:18:28;9.23;;;7.10;;
73747;SDS011;62056;52.130;5.428;2023-03-01T08:20:55;7.15;;;5.45;;
73747;SDS011;62056;52.130;5.428;2023-03-01T08:23:27;13.70;;;7.20;;
73747;SDS011;62056;52.130;5.428;2023-03-01T08:25:53;11.03;;;6.63;;
73747;SDS011;62056;52.130;5.428;2023-03-01T08:28:20;10.30;;;6.07;;
73747;SDS011;62056;52.130;5.428;2023-03-01T08:30:47;9.82;;;5.90;;
73747;SDS011;62056;52.130;5.428;2023-03-01T08:33:13;7.63;;;6.03;;
73747;SDS011;62056;52.130;5.428;2023-03-01T08:35:40;8.73;;;5.93;;
73747;SDS011;62056;52.130;5.428;2023-03-01T08:38:07;5.07;;;3.83;;
73747;SDS011;62056;52.130;5.428;2023-03-01T08:40:33;5.00;;;3.75;;
73747;SDS011;62056;52.130;5.428;2023-03-01T08:43:00;7.60;;;5.38;;
73747;SDS011;62056;52.130;5.428;2023-03-01T08:45:26;6.38;;;5.68;;
73747;SDS011;62056;52.130;5.428;2023-03-01T08:47:53;5.80;;;4.78;;
73747;SDS011;62056;52.130;5.428;2023-03-01T08:50:20;6.83;;;5.50;;
73747;SDS011;62056;52.130;5.428;2023-03-01T08:52:49;10.07;;;5.85;;
73747;SDS011;62056;52.130;5.428;2023-03-01T08:55:15;10.00;;;4.68;;
73747;SDS011;62056;52.130;5.428;2023-03-01T08:57:44;5.07;;;4.57;;
73747;SDS011;62056;52.130;5.428;2023-03-01T09:00:19;8.13;;;5.07;;
73747;SDS011;62056;52.130;5.428;2023-03-01T09:02:46;7.00;;;4.93;;
73747;SDS011;62056;52.130;5.428;2023-03-01T09:05:21;5.05;;;4.55;;
73747;SDS011;62056;52.130;5.428;2023-03-01T09:07:47;7.85;;;5.05;;
73747;SDS011;62056;52.130;5.428;2023-03-01T09:10:14;5.55;;;4.22;;
73747;SDS011;62056;52.130;5.428;2023-03-01T09:12:41;5.95;;;4.40;;
73747;SDS011;62056;52.130;5.428;2023-03-01T09:15:08;8.00;;;4.63;;
73747;SDS011;62056;52.130;5.428;2023-03-01T09:17:35;3.85;;;2.92;;
73747;SDS011;62056;52.130;5.428;2023-03-01T09:20:02;5.35;;;4.30;;
73747;SDS011;62056;52.130;5.428;2023-03-01T09:22:33;13.23;;;4.15;;
73747;SDS011;62056;52.130;5.428;2023-03-01T09:25:00;7.82;;;4.78;;
73747;SDS011;62056;52.130;5.428;2023-03-01T09:27:27;9.40;;;3.50;;
73747;SDS011;62056;52.130;5.428;2023-03-01T09:29:54;6.38;;;3.35;;
73747;SDS011;62056;52.130;5.428;2023-03-01T09:32:22;5.82;;;3.13;;
73747;SDS011;62056;52.130;5.428;2023-03-01T09:34:49;5.30;;;3.38;;
73747;SDS011;62056;52.130;5.428;2023-03-01T09:37:33;3.50;;;3.15;;
73747;SDS011;62056;52.130;5.428;2023-03-01T09:40:04;3.47;;;2.60;;
73747;SDS011;62056;52.130;5.428;2023-03-01T09:42:32;6.40;;;3.42;;
73747;SDS011;62056;52.130;5.428;2023-03-01T09:45:03;6.45;;;2.70;;
73747;SDS011;62056;52.130;5.428;2023-03-01T09:47:33;3.45;;;2.72;;
73747;SDS011;62056;52.130;5.428;2023-03-01T09:50:04;4.43;;;3.22;;
73747;SDS011;62056;52.130;5.428;2023-03-01T09:55:25;8.05;;;2.20;;
73747;SDS011;62056;52.130;5.428;2023-03-01T09:58:00;4.20;;;2.58;;
73747;SDS011;62056;52.130;5.428;2023-03-01T10:00:49;2.63;;;1.65;;
73747;SDS011;62056;52.130;5.428;2023-03-01T10:03:19;4.55;;;1.95;;
73747;SDS011;62056;52.130;5.428;2023-03-01T10:08:33;3.90;;;1.45;;
73747;SDS011;62056;52.130;5.428;2023-03-01T10:11:05;1.55;;;1.13;;
73747;SDS011;62056;52.130;5.428;2023-03-01T10:22:02;3.15;;;1.70;;
73747;SDS011;62056;52.130;5.428;2023-03-01T10:24:41;2.75;;;2.22;;
73747;SDS011;62056;52.130;5.428;2023-03-01T10:27:13;2.22;;;1.83;;
73747;SDS011;62056;52.130;5.428;2023-03-01T10:32:43;3.77;;;2.40;;
73747;SDS011;62056;52.130;5.428;2023-03-01T10:35:17;7.30;;;2.67;;
73747;SDS011;62056;52.130;5.428;2023-03-01T10:37:58;2.17;;;1.58;;
73747;SDS011;62056;52.130;5.428;2023-03-01T10:43:25;6.53;;;1.67;;
73747;SDS011;62056;52.130;5.428;2023-03-01T10:45:56;2.93;;;1.47;;
73747;SDS011;62056;52.130;5.428;2023-03-01T10:48:24;4.15;;;1.58;;
73747;SDS011;62056;52.130;5.428;2023-03-01T10:53:28;3.10;;;1.30;;
73747;SDS011;62056;52.130;5.428;2023-03-01T10:56:05;3.17;;;1.70;;
73747;SDS011;62056;52.130;5.428;2023-03-01T10:58:38;2.27;;;1.00;;
73747;SDS011;62056;52.130;5.428;2023-03-01T11:01:24;2.05;;;1.00;;
73747;SDS011;62056;52.130;5.428;2023-03-01T11:06:36;6.13;;;1.77;;
73747;SDS011;62056;52.130;5.428;2023-03-01T11:09:14;6.38;;;1.33;;
73747;SDS011;62056;52.130;5.428;2023-03-01T11:11:44;3.10;;;1.30;;
73747;SDS011;62056;52.130;5.428;2023-03-01T11:16:59;2.60;;;1.70;;
73747;SDS011;62056;52.130;5.428;2023-03-01T11:19:26;2.03;;;1.15;;
73747;SDS011;62056;52.130;5.428;2023-03-01T11:24:41;2.87;;;1.00;;
73747;SDS011;62056;52.130;5.428;2023-03-01T11:27:29;5.05;;;1.50;;
73747;SDS011;62056;52.130;5.428;2023-03-01T11:30:03;2.30;;;1.50;;
73747;SDS011;62056;52.130;5.428;2023-03-01T11:32:36;1.88;;;1.10;;
73747;SDS011;62056;52.130;5.428;2023-03-01T11:35:10;2.08;;;0.85;;
73747;SDS011;62056;52.130;5.428;2023-03-01T11:37:50;1.60;;;0.97;;
73747;SDS011;62056;52.130;5.428;2023-03-01T11:40:24;1.40;;;0.65;;
73747;SDS011;62056;52.130;5.428;2023-03-01T11:45:48;3.83;;;1.33;;
73747;SDS011;62056;52.130;5.428;2023-03-01T11:51:19;2.00;;;0.80;;
73747;SDS011;62056;52.130;5.428;2023-03-01T11:57:01;2.40;;;1.10;;
73747;SDS011;62056;52.130;5.428;2023-03-01T11:59:45;3.08;;;1.58;;
73747;SDS011;62056;52.130;5.428;2023-03-01T12:05:16;1.73;;;1.27;;
73747;SDS011;62056;52.130;5.428;2023-03-01T12:13:42;2.55;;;1.52;;
73747;SDS011;62056;52.130;5.428;2023-03-01T12:21:45;2.65;;;1.52;;
73747;SDS011;62056;52.130;5.428;2023-03-01T12:33:06;2.60;;;1.40;;
73747;SDS011;62056;52.130;5.428;2023-03-01T12:35:44;1.45;;;1.15;;
73747;SDS011;62056;52.130;5.428;2023-03-01T12:38:33;2.28;;;1.42;;
73747;SDS011;62056;52.130;5.428;2023-03-01T12:44:03;1.65;;;1.08;;
73747;SDS011;62056;52.130;5.428;2023-03-01T12:49:08;1.95;;;1.33;;
73747;SDS011;62056;52.130;5.428;2023-03-01T12:51:39;2.05;;;1.50;;
73747;SDS011;62056;52.130;5.428;2023-03-01T12:54:15;2.08;;;1.80;;
73747;SDS011;62056;52.130;5.428;2023-03-01T12:56:43;1.85;;;1.38;;
73747;SDS011;62056;52.130;5.428;2023-03-01T12:59:23;3.03;;;1.67;;
73747;SDS011;62056;52.130;5.428;2023-03-01T13:09:46;3.97;;;1.90;;
73747;SDS011;62056;52.130;5.428;2023-03-01T13:15:28;2.22;;;1.25;;
73747;SDS011;62056;52.130;5.428;2023-03-01T13:17:59;2.13;;;1.60;;
73747;SDS011;62056;52.130;5.428;2023-03-01T13:20:31;3.55;;;1.83;;
73747;SDS011;62056;52.130;5.428;2023-03-01T13:28:44;2.47;;;2.00;;
73747;SDS011;62056;52.130;5.428;2023-03-01T13:33:47;2.75;;;1.63;;
73747;SDS011;62056;52.130;5.428;2023-03-01T13:44:12;2.25;;;1.20;;
73747;SDS011;62056;52.130;5.428;2023-03-01T13:46:48;2.10;;;1.52;;
73747;SDS011;62056;52.130;5.428;2023-03-01T13:49:18;1.98;;;1.55;;
73747;SDS011;62056;52.130;5.428;2023-03-01T13:51:48;3.20;;;1.97;;
73747;SDS011;62056;52.130;5.428;2023-03-01T13:54:16;2.03;;;1.23;;
73747;SDS011;62056;52.130;5.428;2023-03-01T13:56:52;3.75;;;1.27;;
73747;SDS011;62056;52.130;5.428;2023-03-01T13:59:20;4.45;;;2.22;;
73747;SDS011;62056;52.130;5.428;2023-03-01T14:01:53;3.55;;;1.83;;
73747;SDS011;62056;52.130;5.428;2023-03-01T14:04:22;6.13;;;2.77;;
73747;SDS011;62056;52.130;5.428;2023-03-01T14:06:51;2.30;;;1.50;;
73747;SDS011;62056;52.130;5.428;2023-03-01T14:09:34;2.25;;;1.50;;
73747;SDS011;62056;52.130;5.428;2023-03-01T14:14:51;2.33;;;1.30;;
73747;SDS011;62056;52.130;5.428;2023-03-01T14:17:30;2.40;;;1.90;;
73747;SDS011;62056;52.130;5.428;2023-03-01T14:22:44;1.90;;;1.45;;
73747;SDS011;62056;52.130;5.428;2023-03-01T14:25:24;1.88;;;1.35;;
73747;SDS011;62056;52.130;5.428;2023-03-01T14:28:13;2.75;;;1.45;;
73747;SDS011;62056;52.130;5.428;2023-03-01T14:30:44;4.53;;;1.70;;
73747;SDS011;62056;52.130;5.428;2023-03-01T14:33:24;2.83;;;1.55;;
73747;SDS011;62056;52.130;5.428;2023-03-01T14:36:00;2.05;;;1.65;;
73747;SDS011;62056;52.130;5.428;2023-03-01T14:41:05;2.38;;;1.17;;
73747;SDS011;62056;52.130;5.428;2023-03-01T14:43:35;3.17;;;1.80;;
73747;SDS011;62056;52.130;5.428;2023-03-01T14:46:04;2.47;;;1.30;;
73747;SDS011;62056;52.130;5.428;2023-03-01T14:48:31;2.97;;;1.90;;
73747;SDS011;62056;52.130;5.428;2023-03-01T14:50:58;2.30;;;1.83;;
73747;SDS011;62056;52.130;5.428;2023-03-01T14:53:27;4.20;;;2.20;;
73747;SDS011;62056;52.130;5.428;2023-03-01T14:56:02;4.07;;;1.80;;
73747;SDS011;62056;52.130;5.428;2023-03-01T14:58:31;4.50;;;1.88;;
73747;SDS011;62056;52.130;5.428;2023-03-01T15:01:00;2.88;;;1.70;;
73747;SDS011;62056;52.130;5.428;2023-03-01T15:06:10;4.63;;;2.08;;
73747;SDS011;62056;52.130;5.428;2023-03-01T15:08:43;2.53;;;1.50;;
73747;SDS011;62056;52.130;5.428;2023-03-01T15:13:40;1.80;;;1.55;;
73747;SDS011;62056;52.130;5.428;2023-03-01T15:16:13;2.90;;;1.92;;
73747;SDS011;62056;52.130;5.428;2023-03-01T15:18:55;3.55;;;2.17;;
73747;SDS011;62056;52.130;5.428;2023-03-01T15:21:25;2.60;;;1.77;;
73747;SDS011;62056;52.130;5.428;2023-03-01T15:26:50;2.75;;;1.67;;
73747;SDS011;62056;52.130;5.428;2023-03-01T15:29:28;3.85;;;1.30;;
73747;SDS011;62056;52.130;5.428;2023-03-01T15:31:59;6.00;;;2.17;;
73747;SDS011;62056;52.130;5.428;2023-03-01T15:34:31;5.23;;;2.17;;
73747;SDS011;62056;52.130;5.428;2023-03-01T15:37:05;2.47;;;2.03;;
73747;SDS011;62056;52.130;5.428;2023-03-01T15:39:54;2.28;;;1.65;;
73747;SDS011;62056;52.130;5.428;2023-03-01T15:47:39;2.80;;;1.80;;
73747;SDS011;62056;52.130;5.428;2023-03-01T15:50:16;2.50;;;1.65;;
73747;SDS011;62056;52.130;5.428;2023-03-01T15:52:46;3.03;;;1.65;;
73747;SDS011;62056;52.130;5.428;2023-03-01T15:55:16;4.90;;;2.20;;
73747;SDS011;62056;52.130;5.428;2023-03-01T15:57:45;2.47;;;1.73;;
73747;SDS011;62056;52.130;5.428;2023-03-01T16:00:12;3.07;;;2.00;;
73747;SDS011;62056;52.130;5.428;2023-03-01T16:02:40;3.55;;;2.00;;
73747;SDS011;62056;52.130;5.428;2023-03-01T16:05:15;2.05;;;1.80;;
73747;SDS011;62056;52.130;5.428;2023-03-01T16:07:46;4.00;;;1.92;;
73747;SDS011;62056;52.130;5.428;2023-03-01T16:10:12;3.05;;;2.35;;
73747;SDS011;62056;52.130;5.428;2023-03-01T16:12:39;2.60;;;2.30;;
73747;SDS011;62056;52.130;5.428;2023-03-01T16:15:20;4.28;;;2.67;;
73747;SDS011;62056;52.130;5.428;2023-03-01T16:17:50;4.13;;;2.72;;
73747;SDS011;62056;52.130;5.428;2023-03-01T16:20:18;3.38;;;2.47;;
73747;SDS011;62056;52.130;5.428;2023-03-01T16:22:53;3.38;;;2.33;;
73747;SDS011;62056;52.130;5.428;2023-03-01T16:25:21;2.40;;;1.97;;
73747;SDS011;62056;52.130;5.428;2023-03-01T16:27:49;2.95;;;2.20;;
73747;SDS011;62056;52.130;5.428;2023-03-01T16:30:18;3.08;;;1.83;;
73747;SDS011;62056;52.130;5.428;2023-03-01T16:32:46;3.75;;;2.13;;
73747;SDS011;62056;52.130;5.428;2023-03-01T16:35:15;4.43;;;2.72;;
73747;SDS011;62056;52.130;5.428;2023-03-01T16:37:44;4.93;;;2.00;;
73747;SDS011;62056;52.130;5.428;2023-03-01T16:40:16;3.88;;;2.65;;
73747;SDS011;62056;52.130;5.428;2023-03-01T16:42:45;3.33;;;2.90;;
73747;SDS011;62056;52.130;5.428;2023-03-01T16:45:12;3.97;;;2.85;;
73747;SDS011;62056;52.130;5.428;2023-03-01T16:47:49;3.13;;;1.40;;
73747;SDS011;62056;52.130;5.428;2023-03-01T16:50:18;4.63;;;2.27;;
73747;SDS011;62056;52.130;5.428;2023-03-01T16:52:45;4.95;;;2.65;;
73747;SDS011;62056;52.130;5.428;2023-03-01T16:55:13;6.05;;;3.30;;
73747;SDS011;62056;52.130;5.428;2023-03-01T16:57:39;4.40;;;2.88;;
73747;SDS011;62056;52.130;5.428;2023-03-01T17:00:07;4.05;;;3.10;;
73747;SDS011;62056;52.130;5.428;2023-03-01T17:02:40;4.03;;;2.83;;
73747;SDS011;62056;52.130;5.428;2023-03-01T17:05:08;3.40;;;2.35;;
73747;SDS011;62056;52.130;5.428;2023-03-01T17:07:36;3.65;;;2.92;;